Time;durP1;ratioP1;P1;durP2;ratioP2;P2;SDS_P1;SDS_P2;PMS_P1;PMS_P2;Temp;Humidity;BMP_temperature;BMP_pressure;BME280_temperature;BME280_humidity;BME280_pressure;Samples;Min_cycle;Max_cycle;Signal;HPM_P1;HPM_P2
2022/07/24 00:01:40;;;;;;;12.73;9.65;;;;;;;;;;5098520;28;20203;-66
2022/07/24 00:04:07;;;;;;;11.70;10.60;;;;;;;;;;5111821;27;20888;-68
2022/07/24 00:06:35;;;;;;;12.05;10.77;;;;;;;;;;5109316;28;20231;-65
2022/07/24 00:09:02;;;;;;;12.73;11.38;;;;;;;;;;5109788;27;20208;-66
2022/07/24 00:11:30;;;;;;;11.18;10.18;;;;;;;;;;5122848;27;20746;-65
2022/07/24 00:13:58;;;;;;;12.65;10.18;;;;;;;;;;5105520;28;20204;-64
2022/07/24 00:16:25;;;;;;;12.35;10.20;;;;;;;;;;5112225;27;20281;-66
2022/07/24 00:18:53;;;;;;;12.52;9.75;;;;;;;;;;5123172;27;20276;-66
2022/07/24 00:21:21;;;;;;;18.95;9.93;;;;;;;;;;5109604;27;20599;-65
2022/07/24 00:23:48;;;;;;;12.45;9.95;;;;;;;;;;5124901;27;20320;-65
2022/07/24 00:26:16;;;;;;;11.98;10.77;;;;;;;;;;5124661;27;20295;-65
2022/07/24 00:28:43;;;;;;;10.45;9.48;;;;;;;;;;5100017;27;20208;-67
2022/07/24 00:31:10;;;;;;;11.40;9.82;;;;;;;;;;5106666;27;20215;-65
2022/07/24 00:33:38;;;;;;;11.50;10.48;;;;;;;;;;5123740;27;20208;-66
2022/07/24 00:36:06;;;;;;;11.23;10.02;;;;;;;;;;5110659;27;20230;-66
2022/07/24 00:38:33;;;;;;;11.68;10.48;;;;;;;;;;5100362;27;20210;-66
2022/07/24 00:41:01;;;;;;;11.65;10.48;;;;;;;;;;5102814;27;20207;-66
2022/07/24 00:43:29;;;;;;;11.68;10.55;;;;;;;;;;5104777;28;20359;-67
2022/07/24 00:45:56;;;;;;;11.90;10.70;;;;;;;;;;5102898;27;20212;-66
2022/07/24 00:48:25;;;;;;;11.43;10.35;;;;;;;;;;5106650;27;20662;-64
2022/07/24 00:50:52;;;;;;;11.13;10.02;;;;;;;;;;5109510;27;20761;-66
2022/07/24 00:53:20;;;;;;;12.88;10.32;;;;;;;;;;5108035;27;20222;-66
2022/07/24 00:55:47;;;;;;;12.38;9.98;;;;;;;;;;5105770;27;20227;-66
2022/07/24 00:58:15;;;;;;;12.45;10.75;;;;;;;;;;5107587;27;20751;-65
2022/07/24 01:00:42;;;;;;;11.35;10.27;;;;;;;;;;5111266;27;20228;-66
2022/07/24 01:03:10;;;;;;;12.50;10.73;;;;;;;;;;5126279;27;20226;-66
2022/07/24 01:05:37;;;;;;;11.52;10.32;;;;;;;;;;5107313;27;20214;-66
2022/07/24 01:08:05;;;;;;;11.10;10.00;;;;;;;;;;5106437;27;20230;-66
2022/07/24 01:10:32;;;;;;;9.90;8.95;;;;;;;;;;5121033;27;20212;-66
2022/07/24 01:13:00;;;;;;;12.02;9.73;;;;;;;;;;5110426;27;20207;-66
2022/07/24 01:15:28;;;;;;;11.27;10.18;;;;;;;;;;5105424;27;20231;-64
2022/07/24 01:17:55;;;;;;;11.85;10.00;;;;;;;;;;5106617;27;20624;-66
2022/07/24 01:20:22;;;;;;;15.05;10.85;;;;;;;;;;5104234;27;20195;-66
2022/07/24 01:22:53;;;;;;;11.82;10.48;;;;;;;;;;5110844;27;20221;-66
2022/07/24 01:25:20;;;;;;;13.88;10.98;;;;;;;;;;5110544;27;20670;-65
2022/07/24 01:27:48;;;;;;;13.60;11.85;;;;;;;;;;5108342;27;20279;-66
2022/07/24 01:30:15;;;;;;;20.65;15.23;;;;;;;;;;5105569;27;20658;-66
2022/07/24 01:32:43;;;;;;;14.57;12.55;;;;;;;;;;5103904;27;20654;-66
2022/07/24 01:35:10;;;;;;;15.82;10.90;;;;;;;;;;5103157;27;20252;-66
2022/07/24 01:37:49;;;;;;;12.38;11.18;;;;;;;;;;5106299;27;20641;-66
2022/07/24 01:40:16;;;;;;;13.07;11.70;;;;;;;;;;5097809;27;20211;-66
2022/07/24 01:42:44;;;;;;;14.38;12.98;;;;;;;;;;5110630;27;20202;-66
2022/07/24 01:45:11;;;;;;;14.85;12.55;;;;;;;;;;5106441;27;20590;-65
2022/07/24 01:47:39;;;;;;;14.75;12.18;;;;;;;;;;5103311;27;20223;-65
2022/07/24 01:50:06;;;;;;;13.52;11.52;;;;;;;;;;5106508;27;20681;-65
2022/07/24 01:52:34;;;;;;;13.00;11.50;;;;;;;;;;5096151;27;20287;-66
2022/07/24 01:55:01;;;;;;;12.43;11.32;;;;;;;;;;5108153;27;20286;-66
2022/07/24 01:57:29;;;;;;;13.93;10.80;;;;;;;;;;5094393;27;20352;-64
2022/07/24 01:59:56;;;;;;;12.40;11.25;;;;;;;;;;5102543;27;20207;-66
2022/07/24 02:02:25;;;;;;;11.90;10.82;;;;;;;;;;5099892;27;20199;-66
2022/07/24 02:04:53;;;;;;;13.93;12.20;;;;;;;;;;5121824;27;20204;-64
2022/07/24 02:07:20;;;;;;;14.07;10.93;;;;;;;;;;5122614;27;20220;-66
2022/07/24 02:09:48;;;;;;;12.27;11.07;;;;;;;;;;5105270;27;20325;-66
2022/07/24 02:12:15;;;;;;;12.55;11.35;;;;;;;;;;5104065;27;20678;-66
2022/07/24 02:14:42;;;;;;;12.65;11.43;;;;;;;;;;5109181;27;21165;-66
2022/07/24 02:17:10;;;;;;;13.60;11.50;;;;;;;;;;5102263;27;20711;-64
2022/07/24 02:19:37;;;;;;;12.35;11.13;;;;;;;;;;5108961;27;20210;-65
2022/07/24 02:22:05;;;;;;;12.05;10.98;;;;;;;;;;5110005;27;20282;-66
2022/07/24 02:24:32;;;;;;;13.48;11.57;;;;;;;;;;5104395;27;20203;-66
2022/07/24 02:27:00;;;;;;;15.43;12.27;;;;;;;;;;5104888;27;20219;-65
2022/07/24 02:29:29;;;;;;;11.90;10.80;;;;;;;;;;5120995;27;20234;-65
2022/07/24 02:31:57;;;;;;;12.65;11.45;;;;;;;;;;5100869;27;20248;-65
2022/07/24 02:34:25;;;;;;;13.93;11.60;;;;;;;;;;5100901;28;20686;-65
2022/07/24 02:36:52;;;;;;;12.60;11.27;;;;;;;;;;5108103;27;20235;-64
2022/07/24 02:39:19;;;;;;;12.23;11.13;;;;;;;;;;5102153;27;20204;-66
2022/07/24 02:41:47;;;;;;;12.45;10.57;;;;;;;;;;5105627;27;20332;-65
2022/07/24 02:44:16;;;;;;;12.88;11.45;;;;;;;;;;5103193;27;20249;-65
2022/07/24 02:46:43;;;;;;;12.75;11.55;;;;;;;;;;5102943;27;20238;-66
2022/07/24 02:49:11;;;;;;;13.10;11.90;;;;;;;;;;5105067;27;20206;-65
2022/07/24 02:51:39;;;;;;;13.38;11.98;;;;;;;;;;5104733;27;20244;-64
2022/07/24 02:54:06;;;;;;;13.23;11.93;;;;;;;;;;5107149;28;20662;-66
2022/07/24 02:56:34;;;;;;;12.23;11.02;;;;;;;;;;5103191;27;20227;-66
2022/07/24 02:59:01;;;;;;;13.25;11.45;;;;;;;;;;5111348;27;20195;-65
2022/07/24 03:01:29;;;;;;;11.57;10.48;;;;;;;;;;5104265;27;20681;-66
2022/07/24 03:03:56;;;;;;;12.52;11.43;;;;;;;;;;5099851;28;20225;-66
2022/07/24 03:06:24;;;;;;;12.93;11.73;;;;;;;;;;5103782;27;20223;-65
2022/07/24 03:08:51;;;;;;;12.63;11.40;;;;;;;;;;5103294;27;20207;-65
2022/07/24 03:11:19;;;;;;;13.18;11.98;;;;;;;;;;5134766;27;20654;-66
2022/07/24 03:13:47;;;;;;;15.65;12.43;;;;;;;;;;5100221;28;20715;-66
2022/07/24 03:16:16;;;;;;;14.68;13.20;;;;;;;;;;5108135;28;20231;-64
2022/07/24 03:18:48;;;;;;;12.60;11.27;;;;;;;;;;5104489;28;20211;-66
2022/07/24 03:21:16;;;;;;;14.55;11.10;;;;;;;;;;5107171;28;20209;-66
2022/07/24 03:24:04;;;;;;;17.13;12.15;;;;;;;;;;5107746;28;20206;-66
2022/07/24 03:26:31;;;;;;;14.23;12.75;;;;;;;;;;5109200;28;20234;-65
2022/07/24 03:28:58;;;;;;;14.65;11.80;;;;;;;;;;5105206;28;20216;-65
2022/07/24 03:31:26;;;;;;;14.93;12.45;;;;;;;;;;5103174;28;20203;-66
2022/07/24 03:33:54;;;;;;;13.73;12.32;;;;;;;;;;5106457;28;20242;-66
2022/07/24 03:36:21;;;;;;;13.85;12.23;;;;;;;;;;5103877;27;20243;-65
2022/07/24 03:38:48;;;;;;;13.57;12.18;;;;;;;;;;5105036;28;20440;-65
2022/07/24 03:41:16;;;;;;;14.13;12.68;;;;;;;;;;5121045;27;20206;-65
2022/07/24 03:43:43;;;;;;;14.75;13.25;;;;;;;;;;5104650;27;20236;-65
2022/07/24 03:46:11;;;;;;;14.70;13.32;;;;;;;;;;5109073;27;20267;-64
2022/07/24 03:48:38;;;;;;;15.27;13.02;;;;;;;;;;5109104;27;20369;-64
2022/07/24 03:51:06;;;;;;;14.35;12.95;;;;;;;;;;5110413;27;20211;-64
2022/07/24 03:53:36;;;;;;;14.10;12.70;;;;;;;;;;5110901;27;20229;-64
2022/07/24 03:56:06;;;;;;;14.00;12.60;;;;;;;;;;5109131;27;20615;-65
2022/07/24 03:58:33;;;;;;;15.10;13.68;;;;;;;;;;5113957;27;20211;-65
2022/07/24 04:01:06;;;;;;;13.40;12.20;;;;;;;;;;5115466;27;20200;-63
2022/07/24 04:03:33;;;;;;;13.40;11.82;;;;;;;;;;5110788;27;20212;-66
2022/07/24 04:06:02;;;;;;;31.60;23.23;;;;;;;;;;5102613;27;20266;-65
2022/07/24 04:08:29;;;;;;;17.08;13.23;;;;;;;;;;5123519;27;20212;-66
2022/07/24 04:10:57;;;;;;;14.35;13.00;;;;;;;;;;5125228;27;20207;-66
2022/07/24 04:13:29;;;;;;;14.35;12.95;;;;;;;;;;5107703;27;20690;-65
2022/07/24 04:15:57;;;;;;;14.50;12.77;;;;;;;;;;5112512;27;20210;-65
2022/07/24 04:18:24;;;;;;;15.25;13.30;;;;;;;;;;5109594;27;20222;-65
2022/07/24 04:20:52;;;;;;;14.20;12.75;;;;;;;;;;5141429;27;20196;-65
2022/07/24 04:23:19;;;;;;;17.98;13.38;;;;;;;;;;5105613;27;20795;-65
2022/07/24 04:25:47;;;;;;;14.50;12.75;;;;;;;;;;5113758;27;20710;-65
2022/07/24 04:28:15;;;;;;;14.10;12.57;;;;;;;;;;5111463;27;20195;-65
2022/07/24 04:30:42;;;;;;;14.93;13.10;;;;;;;;;;5105574;27;20210;-65
2022/07/24 04:33:10;;;;;;;13.80;12.50;;;;;;;;;;5109642;27;20225;-65
2022/07/24 04:35:38;;;;;;;15.70;12.35;;;;;;;;;;5109952;27;20199;-65
2022/07/24 04:38:05;;;;;;;14.35;12.98;;;;;;;;;;5107554;27;20227;-65
2022/07/24 04:40:32;;;;;;;12.90;11.60;;;;;;;;;;5107323;27;20230;-65
2022/07/24 04:43:00;;;;;;;13.57;12.20;;;;;;;;;;5106887;27;20199;-65
2022/07/24 04:45:27;;;;;;;13.85;12.00;;;;;;;;;;5107922;27;20222;-65
2022/07/24 04:48:01;;;;;;;13.20;11.95;;;;;;;;;;5105880;27;20574;-65
2022/07/24 04:50:29;;;;;;;14.82;12.23;;;;;;;;;;5108408;27;20207;-65
2022/07/24 04:52:56;;;;;;;12.02;10.93;;;;;;;;;;5105164;27;20203;-65
2022/07/24 04:55:24;;;;;;;11.95;10.82;;;;;;;;;;5104395;27;20211;-65
2022/07/24 04:57:51;;;;;;;11.88;10.43;;;;;;;;;;5099384;27;20223;-65
2022/07/24 05:00:19;;;;;;;13.00;11.10;;;;;;;;;;5106760;27;20666;-65
2022/07/24 05:02:46;;;;;;;11.90;10.80;;;;;;;;;;5107519;27;20211;-65
2022/07/24 05:05:14;;;;;;;12.18;10.95;;;;;;;;;;5120926;27;20212;-65
2022/07/24 05:07:41;;;;;;;12.23;11.02;;;;;;;;;;5103560;27;20227;-65
2022/07/24 05:10:09;;;;;;;12.30;11.10;;;;;;;;;;5106483;27;20199;-65
2022/07/24 05:12:36;;;;;;;12.70;11.40;;;;;;;;;;5110008;27;20208;-65
2022/07/24 05:15:04;;;;;;;14.73;11.70;;;;;;;;;;5106002;27;20777;-65
2022/07/24 05:17:32;;;;;;;14.23;11.50;;;;;;;;;;5113079;27;20823;-65
2022/07/24 05:20:00;;;;;;;13.00;11.38;;;;;;;;;;5106257;27;20965;-65
2022/07/24 05:22:27;;;;;;;12.15;10.90;;;;;;;;;;5104495;27;20214;-65
2022/07/24 05:24:55;;;;;;;12.90;11.70;;;;;;;;;;5103771;27;20207;-65
2022/07/24 05:27:22;;;;;;;12.20;11.10;;;;;;;;;;5108547;27;20224;-65
2022/07/24 05:29:49;;;;;;;13.25;11.48;;;;;;;;;;5107566;27;20211;-65
2022/07/24 05:32:17;;;;;;;12.38;10.85;;;;;;;;;;5108657;27;20204;-65
2022/07/24 05:34:44;;;;;;;12.23;11.07;;;;;;;;;;5104912;27;20713;-65
2022/07/24 05:37:12;;;;;;;10.55;9.55;;;;;;;;;;5105779;27;20227;-65
2022/07/24 05:39:39;;;;;;;10.13;9.23;;;;;;;;;;5106667;27;20950;-66
2022/07/24 05:42:07;;;;;;;9.02;8.13;;;;;;;;;;5104144;27;20211;-66
2022/07/24 05:44:34;;;;;;;10.00;8.93;;;;;;;;;;5106095;27;20612;-66
2022/07/24 05:47:02;;;;;;;9.65;8.07;;;;;;;;;;5107178;27;20234;-64
2022/07/24 05:49:30;;;;;;;9.88;8.90;;;;;;;;;;5111827;27;20207;-65
2022/07/24 05:51:58;;;;;;;9.55;8.63;;;;;;;;;;5107045;27;20211;-65
2022/07/24 05:54:25;;;;;;;9.07;8.18;;;;;;;;;;5111691;27;20207;-66
2022/07/24 05:56:52;;;;;;;9.02;8.07;;;;;;;;;;5104622;27;20655;-67
2022/07/24 05:59:20;;;;;;;8.60;7.80;;;;;;;;;;5113157;27;20211;-65
2022/07/24 06:01:48;;;;;;;8.90;8.00;;;;;;;;;;5107634;27;20325;-66
2022/07/24 06:04:15;;;;;;;7.95;7.32;;;;;;;;;;5098430;27;20569;-69
2022/07/24 06:06:42;;;;;;;8.27;7.32;;;;;;;;;;5110214;27;20281;-66
2022/07/24 06:09:10;;;;;;;7.53;6.78;;;;;;;;;;5118570;27;20203;-66
2022/07/24 06:11:37;;;;;;;7.57;6.85;;;;;;;;;;5107587;27;20655;-68
2022/07/24 06:14:05;;;;;;;7.20;6.50;;;;;;;;;;5105003;27;20199;-68
2022/07/24 06:16:32;;;;;;;7.57;6.78;;;;;;;;;;5107060;27;20227;-67
2022/07/24 06:18:59;;;;;;;7.40;6.80;;;;;;;;;;5103172;27;20199;-66
2022/07/24 06:21:28;;;;;;;7.85;7.05;;;;;;;;;;5108663;27;20242;-67
2022/07/24 06:23:55;;;;;;;7.97;7.25;;;;;;;;;;5124432;27;20263;-66
2022/07/24 06:26:22;;;;;;;7.57;6.95;;;;;;;;;;5106774;27;20223;-67
2022/07/24 06:28:49;;;;;;;7.63;6.78;;;;;;;;;;5105808;27;20474;-65
2022/07/24 06:31:17;;;;;;;6.82;6.25;;;;;;;;;;5106605;27;20236;-66
2022/07/24 06:33:44;;;;;;;8.40;6.57;;;;;;;;;;5106555;27;20221;-67
2022/07/24 06:36:12;;;;;;;7.65;6.95;;;;;;;;;;5120510;27;20239;-65
2022/07/24 06:38:39;;;;;;;7.47;6.88;;;;;;;;;;5105471;27;20222;-67
2022/07/24 06:41:06;;;;;;;6.82;6.22;;;;;;;;;;5108642;27;20207;-68
2022/07/24 06:43:34;;;;;;;8.13;6.82;;;;;;;;;;5104169;27;22102;-66
2022/07/24 06:46:01;;;;;;;7.90;7.15;;;;;;;;;;5101920;28;20235;-67
2022/07/24 06:48:30;;;;;;;8.20;7.40;;;;;;;;;;5122453;27;20299;-67
2022/07/24 06:50:58;;;;;;;8.07;7.38;;;;;;;;;;5119572;27;20725;-66
2022/07/24 06:53:26;;;;;;;8.32;7.53;;;;;;;;;;5102139;27;20203;-66
2022/07/24 06:55:54;;;;;;;7.70;6.95;;;;;;;;;;5109226;27;20200;-64
2022/07/24 06:58:22;;;;;;;7.85;7.05;;;;;;;;;;5097553;27;20532;-66
2022/07/24 07:00:49;;;;;;;8.30;7.50;;;;;;;;;;5106541;27;20207;-66
2022/07/24 07:03:17;;;;;;;8.40;7.57;;;;;;;;;;5105980;27;20204;-66
2022/07/24 07:05:45;;;;;;;9.18;8.25;;;;;;;;;;5106616;28;20674;-67
2022/07/24 07:08:12;;;;;;;9.35;7.93;;;;;;;;;;5131197;27;20815;-69
2022/07/24 07:10:40;;;;;;;8.30;7.60;;;;;;;;;;5108067;28;20678;-66
2022/07/24 07:13:08;;;;;;;8.60;7.88;;;;;;;;;;5108138;27;20207;-65
2022/07/24 07:15:35;;;;;;;8.52;7.50;;;;;;;;;;5106229;27;20734;-67
2022/07/24 07:18:02;;;;;;;8.15;7.40;;;;;;;;;;5107190;27;20235;-66
2022/07/24 07:20:30;;;;;;;7.88;7.15;;;;;;;;;;5108151;27;20199;-66
2022/07/24 07:22:57;;;;;;;8.25;7.55;;;;;;;;;;5110861;27;20223;-66
2022/07/24 07:25:25;;;;;;;8.18;7.47;;;;;;;;;;5110878;27;20269;-66
2022/07/24 07:27:53;;;;;;;9.60;7.97;;;;;;;;;;5106818;27;20322;-67
2022/07/24 07:30:21;;;;;;;9.60;8.18;;;;;;;;;;5110266;27;20670;-65
2022/07/24 07:32:49;;;;;;;8.63;7.72;;;;;;;;;;5113460;27;20685;-68
2022/07/24 07:35:16;;;;;;;9.27;7.72;;;;;;;;;;5114876;27;20260;-66
2022/07/24 07:37:48;;;;;;;7.90;7.30;;;;;;;;;;5106689;27;20237;-65
2022/07/24 07:40:15;;;;;;;8.40;7.60;;;;;;;;;;5111823;27;20207;-65
2022/07/24 07:42:43;;;;;;;9.15;8.10;;;;;;;;;;5110926;27;20548;-66
2022/07/24 07:45:10;;;;;;;8.77;7.88;;;;;;;;;;5110501;27;20222;-64
2022/07/24 07:47:38;;;;;;;8.23;7.43;;;;;;;;;;5109796;28;20235;-66
2022/07/24 07:50:05;;;;;;;7.97;7.30;;;;;;;;;;5108121;27;20207;-66
2022/07/24 07:52:33;;;;;;;7.68;6.97;;;;;;;;;;5105942;27;20212;-66
2022/07/24 07:55:01;;;;;;;9.18;8.38;;;;;;;;;;5108146;27;20207;-66
2022/07/24 07:57:29;;;;;;;8.95;8.10;;;;;;;;;;5106434;27;20236;-65
2022/07/24 08:00:18;;;;;;;8.50;7.68;;;;;;;;;;5108604;27;20256;-67
2022/07/24 08:02:45;;;;;;;9.23;8.32;;;;;;;;;;5108249;27;20233;-67
2022/07/24 08:05:13;;;;;;;8.50;7.60;;;;;;;;;;5123515;27;20199;-68
2022/07/24 08:07:40;;;;;;;8.52;7.63;;;;;;;;;;5105990;27;20239;-66
2022/07/24 08:10:10;;;;;;;8.93;8.13;;;;;;;;;;5106351;27;20248;-65
2022/07/24 08:12:39;;;;;;;8.80;7.60;;;;;;;;;;5111962;27;20211;-67
2022/07/24 08:15:06;;;;;;;8.70;7.80;;;;;;;;;;5104614;27;20220;-69
2022/07/24 08:17:34;;;;;;;8.80;8.00;;;;;;;;;;5106875;27;20235;-65
2022/07/24 08:20:02;;;;;;;8.75;7.75;;;;;;;;;;5108224;27;20200;-65
2022/07/24 08:22:29;;;;;;;9.05;7.95;;;;;;;;;;5110060;27;20204;-66
2022/07/24 08:24:56;;;;;;;8.18;7.43;;;;;;;;;;5108318;27;20196;-66
2022/07/24 08:27:24;;;;;;;8.45;7.65;;;;;;;;;;5121992;27;20219;-65
2022/07/24 08:29:51;;;;;;;8.55;7.75;;;;;;;;;;5106549;27;20215;-65
2022/07/24 08:32:19;;;;;;;8.45;7.65;;;;;;;;;;5110091;27;20199;-65
2022/07/24 08:34:46;;;;;;;8.60;7.43;;;;;;;;;;5107553;27;20203;-66
2022/07/24 08:37:14;;;;;;;8.73;7.38;;;;;;;;;;5107388;27;20314;-66
2022/07/24 08:39:41;;;;;;;9.27;8.25;;;;;;;;;;5106928;27;20192;-64
2022/07/24 08:42:08;;;;;;;9.13;7.47;;;;;;;;;;5106004;27;20191;-65
2022/07/24 08:44:36;;;;;;;8.85;7.80;;;;;;;;;;5116661;27;20730;-65
2022/07/24 08:47:04;;;;;;;8.45;7.60;;;;;;;;;;5112948;27;20648;-64
2022/07/24 08:49:31;;;;;;;8.30;7.55;;;;;;;;;;5108969;27;20204;-64
2022/07/24 08:52:01;;;;;;;8.30;7.50;;;;;;;;;;5107158;27;20335;-67
2022/07/24 08:54:29;;;;;;;8.93;8.13;;;;;;;;;;5110448;27;20594;-67
2022/07/24 08:56:56;;;;;;;8.65;7.80;;;;;;;;;;5112856;27;20690;-66
2022/07/24 08:59:24;;;;;;;8.30;7.60;;;;;;;;;;5107415;27;20199;-65
2022/07/24 09:01:53;;;;;;;8.68;7.93;;;;;;;;;;5110227;27;20352;-66
2022/07/24 09:04:39;;;;;;;8.32;7.63;;;;;;;;;;5107244;27;20347;-67
2022/07/24 09:07:11;;;;;;;8.48;7.68;;;;;;;;;;5109764;27;20289;-66
2022/07/24 09:09:39;;;;;;;8.43;7.65;;;;;;;;;;5106719;27;20203;-66
2022/07/24 09:12:16;;;;;;;8.38;7.68;;;;;;;;;;5104632;27;20222;-65
2022/07/24 09:14:45;;;;;;;8.40;7.70;;;;;;;;;;5108907;27;20714;-66
2022/07/24 09:17:17;;;;;;;7.70;7.10;;;;;;;;;;5105289;27;20219;-66
2022/07/24 09:19:46;;;;;;;8.20;7.20;;;;;;;;;;5108130;27;20211;-66
2022/07/24 09:22:35;;;;;;;7.85;7.15;;;;;;;;;;5106772;27;20211;-67
2022/07/24 09:25:05;;;;;;;9.00;8.10;;;;;;;;;;5109813;27;20196;-65
2022/07/24 09:27:33;;;;;;;8.43;7.63;;;;;;;;;;5098604;27;20289;-66
2022/07/24 09:30:01;;;;;;;7.80;7.20;;;;;;;;;;5109624;27;20200;-67
2022/07/24 09:32:28;;;;;;;7.75;7.15;;;;;;;;;;5106757;27;20278;-68
2022/07/24 09:34:56;;;;;;;7.50;6.90;;;;;;;;;;5105365;27;20219;-66
2022/07/24 09:37:26;;;;;;;7.75;7.05;;;;;;;;;;5109336;27;20228;-65
2022/07/24 09:40:06;;;;;;;7.68;6.80;;;;;;;;;;5104062;27;20201;-65
2022/07/24 09:42:38;;;;;;;7.38;6.75;;;;;;;;;;5103600;27;20200;-66
2022/07/24 09:45:08;;;;;;;7.88;7.13;;;;;;;;;;5106262;27;20211;-65
2022/07/24 09:47:36;;;;;;;7.93;7.28;;;;;;;;;;5105043;27;20223;-65
2022/07/24 09:50:15;;;;;;;7.45;6.82;;;;;;;;;;5106483;27;20260;-64
2022/07/24 09:52:43;;;;;;;7.13;6.53;;;;;;;;;;5104064;27;20207;-66
2022/07/24 09:55:21;;;;;;;7.40;6.65;;;;;;;;;;5103269;27;20260;-66
2022/07/24 09:57:48;;;;;;;7.78;7.05;;;;;;;;;;5104961;28;20227;-65
2022/07/24 10:00:16;;;;;;;7.10;6.50;;;;;;;;;;5105917;27;20195;-66
2022/07/24 10:02:44;;;;;;;7.88;7.28;;;;;;;;;;5102424;27;20203;-65
2022/07/24 10:05:12;;;;;;;8.38;7.22;;;;;;;;;;5107921;27;20239;-66
2022/07/24 10:07:49;;;;;;;7.85;7.05;;;;;;;;;;5107093;27;20219;-66
2022/07/24 10:10:16;;;;;;;7.70;6.80;;;;;;;;;;5105110;27;20294;-66
2022/07/24 10:12:45;;;;;;;7.57;6.88;;;;;;;;;;5108376;27;20882;-68
2022/07/24 10:15:13;;;;;;;7.47;6.78;;;;;;;;;;5106848;27;20215;-65
2022/07/24 10:17:43;;;;;;;7.90;7.13;;;;;;;;;;5110543;27;20228;-66
2022/07/24 10:20:12;;;;;;;8.07;6.45;;;;;;;;;;5102131;28;20212;-65
2022/07/24 10:23:04;;;;;;;7.40;6.75;;;;;;;;;;5135022;27;20219;-64
2022/07/24 10:25:42;;;;;;;6.68;6.07;;;;;;;;;;5106761;27;20199;-67
2022/07/24 10:28:13;;;;;;;6.97;6.38;;;;;;;;;;5105097;27;20653;-64
2022/07/24 10:30:41;;;;;;;8.27;7.20;;;;;;;;;;5105443;27;20204;-65
2022/07/24 10:33:16;;;;;;;7.68;6.90;;;;;;;;;;5102501;27;20199;-66
2022/07/24 10:35:44;;;;;;;7.13;6.53;;;;;;;;;;5106334;27;20791;-65
2022/07/24 10:38:24;;;;;;;6.82;6.20;;;;;;;;;;5101149;27;20909;-65
2022/07/24 10:40:53;;;;;;;7.00;6.40;;;;;;;;;;5102627;27;20421;-68
2022/07/24 10:43:22;;;;;;;6.65;6.15;;;;;;;;;;5102822;27;20253;-65
2022/07/24 10:45:49;;;;;;;7.45;6.80;;;;;;;;;;5102294;27;20865;-66
2022/07/24 10:48:23;;;;;;;7.20;6.50;;;;;;;;;;5104257;27;20200;-69
2022/07/24 10:51:00;;;;;;;6.78;6.18;;;;;;;;;;5101263;27;20202;-65
2022/07/24 10:53:28;;;;;;;6.68;6.18;;;;;;;;;;5093427;27;20208;-66
2022/07/24 10:56:14;;;;;;;6.85;6.25;;;;;;;;;;5100737;27;20970;-68
2022/07/24 10:58:52;;;;;;;7.43;6.65;;;;;;;;;;5102772;27;20223;-64
2022/07/24 11:01:30;;;;;;;8.27;6.78;;;;;;;;;;5108523;27;20520;-66
2022/07/24 11:03:58;;;;;;;6.80;6.20;;;;;;;;;;5106922;27;20200;-66
2022/07/24 11:06:39;;;;;;;7.05;6.45;;;;;;;;;;5110223;28;20215;-66
2022/07/24 11:09:06;;;;;;;7.18;6.53;;;;;;;;;;5100988;27;20203;-67
2022/07/24 11:11:40;;;;;;;6.97;6.35;;;;;;;;;;5109833;27;20698;-66
2022/07/24 11:14:10;;;;;;;7.45;6.85;;;;;;;;;;5108830;28;20211;-66
2022/07/24 11:16:38;;;;;;;7.13;6.47;;;;;;;;;;5101551;28;20714;-66
2022/07/24 11:19:06;;;;;;;7.22;6.57;;;;;;;;;;5104022;27;20227;-66
2022/07/24 11:21:41;;;;;;;7.15;6.60;;;;;;;;;;5118612;27;20195;-66
2022/07/24 11:24:22;;;;;;;7.30;6.50;;;;;;;;;;5102411;28;20252;-66
2022/07/24 11:26:50;;;;;;;7.32;6.72;;;;;;;;;;5107072;28;20723;-66
2022/07/24 11:29:18;;;;;;;7.47;6.78;;;;;;;;;;5101520;27;20686;-66
2022/07/24 11:31:50;;;;;;;7.70;6.90;;;;;;;;;;5095521;28;20215;-66
2022/07/24 11:34:19;;;;;;;7.97;7.07;;;;;;;;;;5120197;28;20199;-66
2022/07/24 11:36:48;;;;;;;7.00;6.40;;;;;;;;;;5103069;27;20237;-66
2022/07/24 11:39:16;;;;;;;7.82;7.03;;;;;;;;;;5097718;27;20273;-66
2022/07/24 11:41:47;;;;;;;8.45;7.63;;;;;;;;;;5095888;27;20200;-66
2022/07/24 11:44:23;;;;;;;7.97;7.18;;;;;;;;;;5098232;27;20208;-66
2022/07/24 11:46:50;;;;;;;8.43;7.45;;;;;;;;;;5099700;27;20227;-66
2022/07/24 11:49:18;;;;;;;7.10;6.50;;;;;;;;;;5100641;28;20203;-65
2022/07/24 11:51:47;;;;;;;7.15;6.43;;;;;;;;;;5101080;27;20211;-66
2022/07/24 11:54:15;;;;;;;6.78;6.18;;;;;;;;;;5102652;28;20210;-65
2022/07/24 11:56:42;;;;;;;6.78;6.28;;;;;;;;;;5100540;28;20231;-65
2022/07/24 11:59:26;;;;;;;7.25;6.65;;;;;;;;;;5096609;28;20235;-66
2022/07/24 12:02:12;;;;;;;6.95;6.35;;;;;;;;;;5107259;28;20861;-66
2022/07/24 12:04:40;;;;;;;8.60;6.50;;;;;;;;;;5116568;27;20199;-66
2022/07/24 12:07:29;;;;;;;6.47;5.97;;;;;;;;;;5113910;27;20215;-65
2022/07/24 12:09:57;;;;;;;7.25;6.57;;;;;;;;;;5102478;27;20203;-66
2022/07/24 12:12:26;;;;;;;7.43;6.72;;;;;;;;;;5113988;27;20819;-65
2022/07/24 12:15:14;;;;;;;7.10;6.50;;;;;;;;;;5105275;27;20666;-66
2022/07/24 12:17:57;;;;;;;6.97;6.28;;;;;;;;;;5106261;27;20227;-65
2022/07/24 12:20:29;;;;;;;6.88;6.32;;;;;;;;;;5107038;27;20206;-65
2022/07/24 12:23:01;;;;;;;6.85;6.35;;;;;;;;;;5125166;27;20221;-65
2022/07/24 12:25:29;;;;;;;7.05;6.45;;;;;;;;;;5103085;27;20265;-65
2022/07/24 12:28:05;;;;;;;6.55;6.03;;;;;;;;;;5109789;28;20751;-65
2022/07/24 12:30:37;;;;;;;7.07;6.45;;;;;;;;;;5116277;27;20200;-66
2022/07/24 12:33:07;;;;;;;6.75;6.15;;;;;;;;;;5111509;27;20203;-66
2022/07/24 12:35:54;;;;;;;7.50;6.80;;;;;;;;;;5127379;27;20195;-66
2022/07/24 12:38:30;;;;;;;6.45;5.88;;;;;;;;;;5110418;27;20705;-66
2022/07/24 12:41:01;;;;;;;7.15;6.53;;;;;;;;;;5124766;27;20199;-65
2022/07/24 12:43:29;;;;;;;6.68;6.18;;;;;;;;;;5105713;27;20204;-66
2022/07/24 12:46:09;;;;;;;6.38;5.78;;;;;;;;;;5115393;27;20208;-66
2022/07/24 12:48:37;;;;;;;6.97;6.38;;;;;;;;;;5115185;27;20203;-65
2022/07/24 12:51:08;;;;;;;6.45;5.95;;;;;;;;;;5106049;27;20302;-65
2022/07/24 12:53:36;;;;;;;6.35;5.80;;;;;;;;;;5101839;27;20208;-66
2022/07/24 12:56:11;;;;;;;6.63;6.00;;;;;;;;;;5110328;27;20223;-65
2022/07/24 12:59:08;;;;;;;6.45;5.97;;;;;;;;;;5106230;27;20937;-66
2022/07/24 13:01:46;;;;;;;6.68;6.13;;;;;;;;;;5100251;27;20916;-65
2022/07/24 13:04:16;;;;;;;7.05;6.45;;;;;;;;;;5102117;27;20224;-65
2022/07/24 13:06:46;;;;;;;7.30;6.70;;;;;;;;;;5108460;27;20223;-65
2022/07/24 13:09:14;;;;;;;6.80;6.28;;;;;;;;;;5105679;27;20208;-65
2022/07/24 13:11:42;;;;;;;7.00;6.38;;;;;;;;;;5111304;27;20207;-65
2022/07/24 13:14:11;;;;;;;6.70;6.10;;;;;;;;;;5109752;27;20204;-65
2022/07/24 13:16:40;;;;;;;7.57;6.88;;;;;;;;;;5108769;27;20246;-65
2022/07/24 13:19:08;;;;;;;6.68;6.07;;;;;;;;;;5105832;27;20647;-65
2022/07/24 13:21:36;;;;;;;6.70;5.95;;;;;;;;;;5100505;27;20204;-65
2022/07/24 13:24:04;;;;;;;7.28;6.57;;;;;;;;;;5106351;27;20203;-65
2022/07/24 13:26:33;;;;;;;8.20;7.50;;;;;;;;;;5109090;27;20255;-65
2022/07/24 13:29:00;;;;;;;6.93;6.20;;;;;;;;;;5107600;28;20204;-66
2022/07/24 13:31:28;;;;;;;6.57;6.07;;;;;;;;;;5109128;27;20526;-65
2022/07/24 13:33:55;;;;;;;6.40;6.00;;;;;;;;;;5103461;27;20208;-66
2022/07/24 13:36:22;;;;;;;7.22;6.28;;;;;;;;;;5127558;27;20231;-66
2022/07/24 13:38:51;;;;;;;7.15;6.45;;;;;;;;;;5108813;27;20245;-65
2022/07/24 13:41:21;;;;;;;7.13;6.50;;;;;;;;;;5105917;27;20209;-66
2022/07/24 13:43:49;;;;;;;6.15;5.65;;;;;;;;;;5104075;27;20200;-66
2022/07/24 13:46:17;;;;;;;6.10;5.70;;;;;;;;;;5139745;27;20228;-66
2022/07/24 13:48:48;;;;;;;6.55;5.95;;;;;;;;;;5108036;27;20230;-66
2022/07/24 13:51:23;;;;;;;7.10;6.40;;;;;;;;;;5111761;27;20203;-66
2022/07/24 13:53:51;;;;;;;6.53;6.03;;;;;;;;;;5107484;27;20230;-66
2022/07/24 13:56:19;;;;;;;6.00;5.60;;;;;;;;;;5106526;27;20235;-66
2022/07/24 13:58:46;;;;;;;6.72;6.15;;;;;;;;;;5109119;27;20227;-66
2022/07/24 14:01:16;;;;;;;6.38;5.88;;;;;;;;;;5102345;27;20535;-66
2022/07/24 14:03:44;;;;;;;6.40;5.82;;;;;;;;;;5102364;27;20255;-66
2022/07/24 14:06:32;;;;;;;6.45;5.72;;;;;;;;;;5128441;27;20760;-66
2022/07/24 14:09:00;;;;;;;6.32;5.72;;;;;;;;;;5107710;27;20207;-66
2022/07/24 14:11:28;;;;;;;6.30;5.80;;;;;;;;;;5120442;27;20890;-66
2022/07/24 14:13:55;;;;;;;6.28;5.78;;;;;;;;;;5114078;27;20212;-67
2022/07/24 14:16:23;;;;;;;6.18;5.65;;;;;;;;;;5107375;27;20227;-65
2022/07/24 14:18:50;;;;;;;6.30;5.72;;;;;;;;;;5104647;27;21447;-66
2022/07/24 14:21:18;;;;;;;5.50;5.10;;;;;;;;;;5105989;27;20201;-66
2022/07/24 14:23:45;;;;;;;6.22;5.72;;;;;;;;;;5122913;27;20215;-66
2022/07/24 14:26:13;;;;;;;6.40;5.80;;;;;;;;;;5108529;27;20212;-66
2022/07/24 14:28:40;;;;;;;6.97;6.15;;;;;;;;;;5106918;27;20607;-66
2022/07/24 14:31:08;;;;;;;6.60;6.00;;;;;;;;;;5106621;27;20245;-66
2022/07/24 14:33:35;;;;;;;6.18;5.68;;;;;;;;;;5123763;27;20297;-66
2022/07/24 14:36:03;;;;;;;6.72;5.82;;;;;;;;;;5107623;27;20572;-65
2022/07/24 14:38:31;;;;;;;6.32;5.82;;;;;;;;;;5101270;27;20877;-66
2022/07/24 14:40:58;;;;;;;5.80;5.35;;;;;;;;;;5100494;27;20199;-64
2022/07/24 14:43:26;;;;;;;7.28;5.97;;;;;;;;;;5108426;27;20218;-66
2022/07/24 14:45:54;;;;;;;6.85;6.35;;;;;;;;;;5102566;28;20203;-66